sensor_id;sensor_type;location;lat;lon;timestamp;P1;durP1;ratioP1;P2;durP2;ratioP2
21675;SDS011;10999;51.332;9.458;2023-04-15T00:00:57;7.93;;;3.15;;
21675;SDS011;10999;51.332;9.458;2023-04-15T00:03:25;5.00;;;2.28;;
21675;SDS011;10999;51.332;9.458;2023-04-15T00:05:52;8.77;;;3.53;;
21675;SDS011;10999;51.332;9.458;2023-04-15T00:08:19;9.35;;;3.28;;
21675;SDS011;10999;51.332;9.458;2023-04-15T00:10:46;8.07;;;3.22;;
21675;SDS011;10999;51.332;9.458;2023-04-15T00:13:12;8.07;;;3.15;;
21675;SDS011;10999;51.332;9.458;2023-04-15T00:15:40;7.40;;;3.05;;
21675;SDS011;10999;51.332;9.458;2023-04-15T00:18:07;9.18;;;3.83;;
21675;SDS011;10999;51.332;9.458;2023-04-15T00:20:34;7.57;;;3.35;;
21675;SDS011;10999;51.332;9.458;2023-04-15T00:23:02;8.05;;;3.90;;
21675;SDS011;10999;51.332;9.458;2023-04-15T00:25:29;9.07;;;3.85;;
21675;SDS011;10999;51.332;9.458;2023-04-15T00:27:56;11.55;;;4.40;;
21675;SDS011;10999;51.332;9.458;2023-04-15T00:30:23;8.48;;;3.53;;
21675;SDS011;10999;51.332;9.458;2023-04-15T00:32:50;10.68;;;4.72;;
21675;SDS011;10999;51.332;9.458;2023-04-15T00:35:17;10.50;;;4.35;;
21675;SDS011;10999;51.332;9.458;2023-04-15T00:37:44;11.20;;;5.00;;
21675;SDS011;10999;51.332;9.458;2023-04-15T00:40:11;11.32;;;4.45;;
21675;SDS011;10999;51.332;9.458;2023-04-15T00:42:39;10.27;;;4.22;;
21675;SDS011;10999;51.332;9.458;2023-04-15T00:45:06;10.50;;;4.47;;
21675;SDS011;10999;51.332;9.458;2023-04-15T00:47:34;10.38;;;4.25;;
21675;SDS011;10999;51.332;9.458;2023-04-15T00:50:02;11.55;;;5.05;;
21675;SDS011;10999;51.332;9.458;2023-04-15T00:52:31;10.07;;;3.97;;
21675;SDS011;10999;51.332;9.458;2023-04-15T00:54:58;7.95;;;3.72;;
21675;SDS011;10999;51.332;9.458;2023-04-15T00:57:25;11.65;;;4.15;;
21675;SDS011;10999;51.332;9.458;2023-04-15T00:59:54;10.32;;;4.35;;
21675;SDS011;10999;51.332;9.458;2023-04-15T01:02:22;11.02;;;4.22;;
21675;SDS011;10999;51.332;9.458;2023-04-15T01:04:49;8.88;;;3.90;;
21675;SDS011;10999;51.332;9.458;2023-04-15T01:07:16;9.75;;;3.83;;
21675;SDS011;10999;51.332;9.458;2023-04-15T01:09:43;10.35;;;4.25;;
21675;SDS011;10999;51.332;9.458;2023-04-15T01:12:11;9.35;;;3.72;;
21675;SDS011;10999;51.332;9.458;2023-04-15T01:14:39;11.43;;;4.80;;
21675;SDS011;10999;51.332;9.458;2023-04-15T01:17:06;10.70;;;4.35;;
21675;SDS011;10999;51.332;9.458;2023-04-15T01:19:33;10.13;;;4.20;;
21675;SDS011;10999;51.332;9.458;2023-04-15T01:22:02;9.50;;;4.05;;
21675;SDS011;10999;51.332;9.458;2023-04-15T01:24:30;9.23;;;3.72;;
21675;SDS011;10999;51.332;9.458;2023-04-15T01:26:58;8.93;;;3.95;;
21675;SDS011;10999;51.332;9.458;2023-04-15T01:29:25;8.30;;;3.55;;
21675;SDS011;10999;51.332;9.458;2023-04-15T01:31:53;9.07;;;3.80;;
21675;SDS011;10999;51.332;9.458;2023-04-15T01:34:21;8.85;;;3.80;;
21675;SDS011;10999;51.332;9.458;2023-04-15T01:36:48;12.02;;;4.97;;
21675;SDS011;10999;51.332;9.458;2023-04-15T01:39:14;10.60;;;4.38;;
21675;SDS011;10999;51.332;9.458;2023-04-15T01:41:41;8.43;;;3.85;;
21675;SDS011;10999;51.332;9.458;2023-04-15T01:44:08;9.88;;;4.00;;
21675;SDS011;10999;51.332;9.458;2023-04-15T01:46:35;7.65;;;3.70;;
21675;SDS011;10999;51.332;9.458;2023-04-15T01:49:02;8.95;;;4.05;;
21675;SDS011;10999;51.332;9.458;2023-04-15T01:51:28;10.43;;;5.03;;
21675;SDS011;10999;51.332;9.458;2023-04-15T01:53:55;10.98;;;4.45;;
21675;SDS011;10999;51.332;9.458;2023-04-15T01:56:22;10.50;;;4.63;;
21675;SDS011;10999;51.332;9.458;2023-04-15T01:58:49;10.02;;;4.78;;
21675;SDS011;10999;51.332;9.458;2023-04-15T02:01:16;9.38;;;4.50;;
21675;SDS011;10999;51.332;9.458;2023-04-15T02:03:45;9.93;;;4.50;;
21675;SDS011;10999;51.332;9.458;2023-04-15T02:06:13;11.80;;;4.80;;
21675;SDS011;10999;51.332;9.458;2023-04-15T02:08:40;11.30;;;4.95;;
21675;SDS011;10999;51.332;9.458;2023-04-15T02:11:06;11.13;;;4.72;;
21675;SDS011;10999;51.332;9.458;2023-04-15T02:13:33;12.23;;;4.82;;
21675;SDS011;10999;51.332;9.458;2023-04-15T02:16:00;10.93;;;5.05;;
21675;SDS011;10999;51.332;9.458;2023-04-15T02:18:28;12.07;;;4.90;;
21675;SDS011;10999;51.332;9.458;2023-04-15T02:20:55;11.23;;;4.80;;
21675;SDS011;10999;51.332;9.458;2023-04-15T02:23:23;13.85;;;5.38;;
21675;SDS011;10999;51.332;9.458;2023-04-15T02:25:50;9.07;;;4.10;;
21675;SDS011;10999;51.332;9.458;2023-04-15T02:28:19;10.50;;;4.45;;
21675;SDS011;10999;51.332;9.458;2023-04-15T02:30:50;11.10;;;4.72;;
21675;SDS011;10999;51.332;9.458;2023-04-15T02:33:18;10.68;;;4.88;;
21675;SDS011;10999;51.332;9.458;2023-04-15T02:35:46;11.55;;;5.03;;
21675;SDS011;10999;51.332;9.458;2023-04-15T02:38:13;11.95;;;5.00;;
21675;SDS011;10999;51.332;9.458;2023-04-15T02:40:41;10.82;;;4.63;;
21675;SDS011;10999;51.332;9.458;2023-04-15T02:43:08;11.55;;;4.75;;
21675;SDS011;10999;51.332;9.458;2023-04-15T02:45:36;11.68;;;4.78;;
21675;SDS011;10999;51.332;9.458;2023-04-15T02:48:03;10.98;;;4.90;;
21675;SDS011;10999;51.332;9.458;2023-04-15T02:50:31;11.80;;;4.85;;
21675;SDS011;10999;51.332;9.458;2023-04-15T02:52:58;11.00;;;4.72;;
21675;SDS011;10999;51.332;9.458;2023-04-15T02:55:27;12.70;;;5.05;;
21675;SDS011;10999;51.332;9.458;2023-04-15T02:57:54;11.85;;;5.13;;
21675;SDS011;10999;51.332;9.458;2023-04-15T03:00:21;13.88;;;5.55;;
21675;SDS011;10999;51.332;9.458;2023-04-15T03:02:50;12.45;;;5.43;;
21675;SDS011;10999;51.332;9.458;2023-04-15T03:05:21;12.30;;;5.65;;
21675;SDS011;10999;51.332;9.458;2023-04-15T03:07:51;12.32;;;5.28;;
21675;SDS011;10999;51.332;9.458;2023-04-15T03:10:18;13.98;;;6.20;;
21675;SDS011;10999;51.332;9.458;2023-04-15T03:12:45;14.13;;;6.28;;
21675;SDS011;10999;51.332;9.458;2023-04-15T03:15:12;12.40;;;6.28;;
21675;SDS011;10999;51.332;9.458;2023-04-15T03:17:38;13.38;;;5.68;;
21675;SDS011;10999;51.332;9.458;2023-04-15T03:20:05;12.43;;;5.95;;
21675;SDS011;10999;51.332;9.458;2023-04-15T03:22:32;13.77;;;6.30;;
21675;SDS011;10999;51.332;9.458;2023-04-15T03:24:59;12.25;;;5.97;;
21675;SDS011;10999;51.332;9.458;2023-04-15T03:27:26;11.55;;;5.00;;
21675;SDS011;10999;51.332;9.458;2023-04-15T03:29:52;10.80;;;5.30;;
21675;SDS011;10999;51.332;9.458;2023-04-15T03:32:19;11.48;;;5.88;;
21675;SDS011;10999;51.332;9.458;2023-04-15T03:34:46;11.30;;;5.50;;
21675;SDS011;10999;51.332;9.458;2023-04-15T03:37:13;12.38;;;5.75;;
21675;SDS011;10999;51.332;9.458;2023-04-15T03:39:40;12.40;;;5.22;;
21675;SDS011;10999;51.332;9.458;2023-04-15T03:42:06;11.32;;;5.68;;
21675;SDS011;10999;51.332;9.458;2023-04-15T03:44:33;12.60;;;5.72;;
21675;SDS011;10999;51.332;9.458;2023-04-15T03:47:00;11.20;;;4.97;;
21675;SDS011;10999;51.332;9.458;2023-04-15T03:49:27;10.73;;;5.20;;
21675;SDS011;10999;51.332;9.458;2023-04-15T03:51:53;13.00;;;5.78;;
21675;SDS011;10999;51.332;9.458;2023-04-15T03:54:20;11.73;;;4.90;;
21675;SDS011;10999;51.332;9.458;2023-04-15T03:56:47;13.48;;;5.63;;
21675;SDS011;10999;51.332;9.458;2023-04-15T03:59:14;14.23;;;5.57;;
21675;SDS011;10999;51.332;9.458;2023-04-15T04:01:40;12.95;;;5.63;;
21675;SDS011;10999;51.332;9.458;2023-04-15T04:04:07;13.48;;;5.70;;
21675;SDS011;10999;51.332;9.458;2023-04-15T04:06:34;10.57;;;5.43;;
21675;SDS011;10999;51.332;9.458;2023-04-15T04:09:01;11.75;;;5.40;;
21675;SDS011;10999;51.332;9.458;2023-04-15T04:11:28;13.38;;;5.55;;
21675;SDS011;10999;51.332;9.458;2023-04-15T04:13:54;13.35;;;6.43;;
21675;SDS011;10999;51.332;9.458;2023-04-15T04:16:21;11.82;;;6.03;;
21675;SDS011;10999;51.332;9.458;2023-04-15T04:18:48;13.52;;;5.70;;
21675;SDS011;10999;51.332;9.458;2023-04-15T04:21:15;12.50;;;6.20;;
21675;SDS011;10999;51.332;9.458;2023-04-15T04:23:42;14.50;;;7.10;;
21675;SDS011;10999;51.332;9.458;2023-04-15T04:26:09;12.82;;;6.32;;
21675;SDS011;10999;51.332;9.458;2023-04-15T04:28:36;13.35;;;6.40;;
21675;SDS011;10999;51.332;9.458;2023-04-15T04:31:05;12.05;;;5.53;;
21675;SDS011;10999;51.332;9.458;2023-04-15T04:33:32;14.27;;;6.53;;
21675;SDS011;10999;51.332;9.458;2023-04-15T04:35:59;15.07;;;6.40;;
21675;SDS011;10999;51.332;9.458;2023-04-15T04:38:26;13.52;;;6.28;;
21675;SDS011;10999;51.332;9.458;2023-04-15T04:40:52;16.13;;;6.63;;
21675;SDS011;10999;51.332;9.458;2023-04-15T04:43:19;16.02;;;7.10;;
21675;SDS011;10999;51.332;9.458;2023-04-15T04:45:46;15.38;;;6.65;;
21675;SDS011;10999;51.332;9.458;2023-04-15T04:48:12;14.18;;;6.88;;
21675;SDS011;10999;51.332;9.458;2023-04-15T04:50:39;16.75;;;6.63;;
21675;SDS011;10999;51.332;9.458;2023-04-15T04:53:06;17.75;;;7.55;;
21675;SDS011;10999;51.332;9.458;2023-04-15T04:55:32;17.17;;;7.93;;
21675;SDS011;10999;51.332;9.458;2023-04-15T04:58:02;15.90;;;7.25;;
21675;SDS011;10999;51.332;9.458;2023-04-15T05:00:28;16.55;;;7.65;;
21675;SDS011;10999;51.332;9.458;2023-04-15T05:02:55;19.00;;;7.88;;
21675;SDS011;10999;51.332;9.458;2023-04-15T05:05:22;14.88;;;7.32;;
21675;SDS011;10999;51.332;9.458;2023-04-15T05:07:49;18.33;;;7.70;;
21675;SDS011;10999;51.332;9.458;2023-04-15T05:10:15;17.20;;;7.63;;
21675;SDS011;10999;51.332;9.458;2023-04-15T05:12:43;18.23;;;8.65;;
21675;SDS011;10999;51.332;9.458;2023-04-15T05:15:10;14.88;;;7.50;;
21675;SDS011;10999;51.332;9.458;2023-04-15T05:17:37;17.55;;;7.78;;
21675;SDS011;10999;51.332;9.458;2023-04-15T05:20:05;16.70;;;7.63;;
21675;SDS011;10999;51.332;9.458;2023-04-15T05:22:32;19.00;;;7.80;;
21675;SDS011;10999;51.332;9.458;2023-04-15T05:25:00;16.48;;;7.10;;
21675;SDS011;10999;51.332;9.458;2023-04-15T05:27:31;16.95;;;8.07;;
21675;SDS011;10999;51.332;9.458;2023-04-15T05:29:57;17.13;;;8.30;;
21675;SDS011;10999;51.332;9.458;2023-04-15T05:32:24;18.25;;;8.40;;
21675;SDS011;10999;51.332;9.458;2023-04-15T05:34:51;17.50;;;7.40;;
21675;SDS011;10999;51.332;9.458;2023-04-15T05:37:18;16.52;;;7.20;;
21675;SDS011;10999;51.332;9.458;2023-04-15T05:39:54;18.77;;;7.75;;
21675;SDS011;10999;51.332;9.458;2023-04-15T05:42:22;17.70;;;8.32;;
21675;SDS011;10999;51.332;9.458;2023-04-15T05:44:50;17.70;;;8.00;;
21675;SDS011;10999;51.332;9.458;2023-04-15T05:47:17;17.50;;;8.55;;
21675;SDS011;10999;51.332;9.458;2023-04-15T05:49:43;16.20;;;7.53;;
21675;SDS011;10999;51.332;9.458;2023-04-15T05:52:10;15.85;;;7.15;;
21675;SDS011;10999;51.332;9.458;2023-04-15T05:54:37;19.08;;;8.13;;
21675;SDS011;10999;51.332;9.458;2023-04-15T05:57:04;15.93;;;6.65;;
21675;SDS011;10999;51.332;9.458;2023-04-15T05:59:31;17.27;;;8.45;;
21675;SDS011;10999;51.332;9.458;2023-04-15T06:01:58;16.92;;;7.30;;
21675;SDS011;10999;51.332;9.458;2023-04-15T06:04:25;17.08;;;7.32;;
21675;SDS011;10999;51.332;9.458;2023-04-15T06:06:52;15.73;;;7.30;;
21675;SDS011;10999;51.332;9.458;2023-04-15T06:09:19;16.33;;;6.88;;
21675;SDS011;10999;51.332;9.458;2023-04-15T06:11:46;15.07;;;6.78;;
21675;SDS011;10999;51.332;9.458;2023-04-15T06:14:12;14.02;;;7.28;;
21675;SDS011;10999;51.332;9.458;2023-04-15T06:16:39;15.10;;;6.35;;
21675;SDS011;10999;51.332;9.458;2023-04-15T06:19:06;14.90;;;7.28;;
21675;SDS011;10999;51.332;9.458;2023-04-15T06:21:33;17.02;;;7.28;;
21675;SDS011;10999;51.332;9.458;2023-04-15T06:24:00;14.70;;;6.72;;
21675;SDS011;10999;51.332;9.458;2023-04-15T06:26:27;16.05;;;6.78;;
21675;SDS011;10999;51.332;9.458;2023-04-15T06:28:54;15.98;;;6.75;;
21675;SDS011;10999;51.332;9.458;2023-04-15T06:31:20;17.15;;;7.95;;
21675;SDS011;10999;51.332;9.458;2023-04-15T06:33:50;16.27;;;8.25;;
21675;SDS011;10999;51.332;9.458;2023-04-15T06:36:17;15.52;;;7.07;;
21675;SDS011;10999;51.332;9.458;2023-04-15T06:38:44;18.23;;;8.65;;
21675;SDS011;10999;51.332;9.458;2023-04-15T06:41:11;17.05;;;7.78;;
21675;SDS011;10999;51.332;9.458;2023-04-15T06:43:38;18.45;;;8.68;;
21675;SDS011;10999;51.332;9.458;2023-04-15T06:46:05;16.00;;;7.63;;
21675;SDS011;10999;51.332;9.458;2023-04-15T06:48:32;18.67;;;7.90;;
21675;SDS011;10999;51.332;9.458;2023-04-15T06:50:59;19.38;;;7.63;;
21675;SDS011;10999;51.332;9.458;2023-04-15T06:53:26;17.67;;;7.82;;
21675;SDS011;10999;51.332;9.458;2023-04-15T06:55:55;19.42;;;8.88;;
21675;SDS011;10999;51.332;9.458;2023-04-15T06:58:22;19.55;;;9.07;;
21675;SDS011;10999;51.332;9.458;2023-04-15T07:00:49;20.95;;;7.78;;
21675;SDS011;10999;51.332;9.458;2023-04-15T07:03:19;19.20;;;7.60;;
21675;SDS011;10999;51.332;9.458;2023-04-15T07:05:46;17.38;;;7.90;;
21675;SDS011;10999;51.332;9.458;2023-04-15T07:08:13;19.70;;;8.43;;
21675;SDS011;10999;51.332;9.458;2023-04-15T07:10:39;15.50;;;7.65;;
21675;SDS011;10999;51.332;9.458;2023-04-15T07:13:06;21.95;;;9.00;;
21675;SDS011;10999;51.332;9.458;2023-04-15T07:15:33;19.52;;;7.72;;
21675;SDS011;10999;51.332;9.458;2023-04-15T07:18:01;21.92;;;10.15;;
21675;SDS011;10999;51.332;9.458;2023-04-15T07:20:27;20.52;;;8.25;;
21675;SDS011;10999;51.332;9.458;2023-04-15T07:22:54;20.70;;;8.65;;
21675;SDS011;10999;51.332;9.458;2023-04-15T07:25:21;21.88;;;10.10;;
21675;SDS011;10999;51.332;9.458;2023-04-15T07:27:48;19.27;;;8.77;;
21675;SDS011;10999;51.332;9.458;2023-04-15T07:30:15;24.75;;;10.13;;
21675;SDS011;10999;51.332;9.458;2023-04-15T07:32:42;22.75;;;9.48;;
21675;SDS011;10999;51.332;9.458;2023-04-15T07:35:08;20.73;;;8.63;;
21675;SDS011;10999;51.332;9.458;2023-04-15T07:37:35;23.40;;;10.18;;
21675;SDS011;10999;51.332;9.458;2023-04-15T07:40:02;20.45;;;9.65;;
21675;SDS011;10999;51.332;9.458;2023-04-15T07:42:30;22.48;;;9.52;;
21675;SDS011;10999;51.332;9.458;2023-04-15T07:44:56;24.55;;;10.00;;
21675;SDS011;10999;51.332;9.458;2023-04-15T07:47:23;25.90;;;9.52;;
21675;SDS011;10999;51.332;9.458;2023-04-15T07:49:50;22.02;;;10.15;;
21675;SDS011;10999;51.332;9.458;2023-04-15T07:52:17;23.35;;;10.05;;
21675;SDS011;10999;51.332;9.458;2023-04-15T07:54:44;24.45;;;10.27;;
21675;SDS011;10999;51.332;9.458;2023-04-15T07:57:11;22.75;;;9.00;;
21675;SDS011;10999;51.332;9.458;2023-04-15T07:59:37;25.02;;;9.52;;
21675;SDS011;10999;51.332;9.458;2023-04-15T08:02:04;21.05;;;8.88;;
21675;SDS011;10999;51.332;9.458;2023-04-15T08:04:31;23.50;;;9.75;;
21675;SDS011;10999;51.332;9.458;2023-04-15T08:06:59;25.77;;;9.73;;
21675;SDS011;10999;51.332;9.458;2023-04-15T08:09:26;20.95;;;9.43;;
21675;SDS011;10999;51.332;9.458;2023-04-15T08:11:52;20.27;;;8.43;;
21675;SDS011;10999;51.332;9.458;2023-04-15T08:14:19;18.65;;;8.75;;
21675;SDS011;10999;51.332;9.458;2023-04-15T08:16:46;22.10;;;8.80;;
21675;SDS011;10999;51.332;9.458;2023-04-15T08:19:12;21.58;;;9.10;;
21675;SDS011;10999;51.332;9.458;2023-04-15T08:21:39;22.35;;;8.95;;
21675;SDS011;10999;51.332;9.458;2023-04-15T08:24:06;22.40;;;8.45;;
21675;SDS011;10999;51.332;9.458;2023-04-15T08:26:33;19.25;;;7.97;;
21675;SDS011;10999;51.332;9.458;2023-04-15T08:28:59;23.10;;;8.98;;
21675;SDS011;10999;51.332;9.458;2023-04-15T08:31:27;17.52;;;7.97;;
21675;SDS011;10999;51.332;9.458;2023-04-15T08:33:55;16.95;;;7.07;;
21675;SDS011;10999;51.332;9.458;2023-04-15T08:36:23;19.20;;;7.85;;
21675;SDS011;10999;51.332;9.458;2023-04-15T08:38:49;15.43;;;6.78;;
21675;SDS011;10999;51.332;9.458;2023-04-15T08:41:20;15.77;;;6.35;;
21675;SDS011;10999;51.332;9.458;2023-04-15T08:43:52;14.15;;;5.95;;
21675;SDS011;10999;51.332;9.458;2023-04-15T08:46:20;16.27;;;6.40;;
21675;SDS011;10999;51.332;9.458;2023-04-15T08:48:48;14.43;;;5.90;;
21675;SDS011;10999;51.332;9.458;2023-04-15T08:51:16;15.10;;;6.10;;
21675;SDS011;10999;51.332;9.458;2023-04-15T08:53:44;13.30;;;5.50;;
21675;SDS011;10999;51.332;9.458;2023-04-15T08:56:13;13.95;;;5.55;;
21675;SDS011;10999;51.332;9.458;2023-04-15T08:58:44;12.48;;;5.80;;
21675;SDS011;10999;51.332;9.458;2023-04-15T09:01:12;12.93;;;5.60;;
21675;SDS011;10999;51.332;9.458;2023-04-15T09:03:39;14.40;;;6.20;;
21675;SDS011;10999;51.332;9.458;2023-04-15T09:06:07;13.55;;;5.07;;
21675;SDS011;10999;51.332;9.458;2023-04-15T09:08:34;11.30;;;4.80;;
21675;SDS011;10999;51.332;9.458;2023-04-15T09:11:01;11.68;;;4.68;;
21675;SDS011;10999;51.332;9.458;2023-04-15T09:13:28;13.63;;;5.32;;
21675;SDS011;10999;51.332;9.458;2023-04-15T09:15:55;11.75;;;4.97;;
21675;SDS011;10999;51.332;9.458;2023-04-15T09:18:28;11.13;;;4.30;;
21675;SDS011;10999;51.332;9.458;2023-04-15T09:23:34;11.15;;;5.45;;
21675;SDS011;10999;51.332;9.458;2023-04-15T09:26:01;11.30;;;3.90;;
21675;SDS011;10999;51.332;9.458;2023-04-15T09:28:29;10.73;;;4.57;;
21675;SDS011;10999;51.332;9.458;2023-04-15T09:30:56;8.75;;;3.53;;
21675;SDS011;10999;51.332;9.458;2023-04-15T09:33:25;9.05;;;3.85;;
21675;SDS011;10999;51.332;9.458;2023-04-15T09:36:03;9.40;;;3.40;;
21675;SDS011;10999;51.332;9.458;2023-04-15T09:38:31;9.93;;;3.83;;
21675;SDS011;10999;51.332;9.458;2023-04-15T09:40:58;10.15;;;3.55;;
21675;SDS011;10999;51.332;9.458;2023-04-15T09:43:38;8.07;;;3.33;;
21675;SDS011;10999;51.332;9.458;2023-04-15T09:46:06;8.23;;;3.17;;
21675;SDS011;10999;51.332;9.458;2023-04-15T09:48:32;9.02;;;3.30;;
21675;SDS011;10999;51.332;9.458;2023-04-15T09:50:59;8.10;;;3.17;;
21675;SDS011;10999;51.332;9.458;2023-04-15T09:53:27;9.50;;;4.05;;
21675;SDS011;10999;51.332;9.458;2023-04-15T09:55:58;8.75;;;2.80;;
21675;SDS011;10999;51.332;9.458;2023-04-15T09:58:31;8.20;;;3.10;;
21675;SDS011;10999;51.332;9.458;2023-04-15T10:01:02;8.63;;;3.17;;
21675;SDS011;10999;51.332;9.458;2023-04-15T10:03:32;8.05;;;3.08;;
21675;SDS011;10999;51.332;9.458;2023-04-15T10:06:03;9.70;;;3.75;;
21675;SDS011;10999;51.332;9.458;2023-04-15T10:08:31;8.10;;;3.00;;
21675;SDS011;10999;51.332;9.458;2023-04-15T10:11:03;10.07;;;3.85;;
21675;SDS011;10999;51.332;9.458;2023-04-15T10:13:31;8.85;;;2.97;;
21675;SDS011;10999;51.332;9.458;2023-04-15T10:16:05;9.00;;;3.40;;
21675;SDS011;10999;51.332;9.458;2023-04-15T10:18:42;8.25;;;3.30;;
21675;SDS011;10999;51.332;9.458;2023-04-15T10:21:12;9.00;;;3.25;;
21675;SDS011;10999;51.332;9.458;2023-04-15T10:23:46;8.90;;;2.65;;
21675;SDS011;10999;51.332;9.458;2023-04-15T10:26:14;8.32;;;2.60;;
21675;SDS011;10999;51.332;9.458;2023-04-15T10:28:44;7.43;;;2.40;;
21675;SDS011;10999;51.332;9.458;2023-04-15T10:31:14;6.35;;;2.28;;
21675;SDS011;10999;51.332;9.458;2023-04-15T10:33:42;5.45;;;2.05;;
21675;SDS011;10999;51.332;9.458;2023-04-15T10:36:11;6.00;;;2.22;;
21675;SDS011;10999;51.332;9.458;2023-04-15T10:38:40;5.45;;;1.92;;
21675;SDS011;10999;51.332;9.458;2023-04-15T10:43:51;6.10;;;2.30;;
21675;SDS011;10999;51.332;9.458;2023-04-15T10:46:37;5.28;;;2.10;;
21675;SDS011;10999;51.332;9.458;2023-04-15T10:51:44;6.85;;;2.90;;
21675;SDS011;10999;51.332;9.458;2023-04-15T10:54:25;6.63;;;2.20;;
21675;SDS011;10999;51.332;9.458;2023-04-15T10:59:30;6.47;;;2.28;;
21675;SDS011;10999;51.332;9.458;2023-04-15T11:01:59;6.13;;;2.50;;
21675;SDS011;10999;51.332;9.458;2023-04-15T11:10:49;5.05;;;1.90;;
21675;SDS011;10999;51.332;9.458;2023-04-15T11:15:33;6.30;;;2.15;;
21675;SDS011;10999;51.332;9.458;2023-04-15T11:20:46;5.13;;;2.20;;
21675;SDS011;10999;51.332;9.458;2023-04-15T11:23:23;5.35;;;1.98;;
21675;SDS011;10999;51.332;9.458;2023-04-15T11:26:11;6.13;;;1.83;;
21675;SDS011;10999;51.332;9.458;2023-04-15T11:28:39;6.28;;;2.08;;
21675;SDS011;10999;51.332;9.458;2023-04-15T11:31:11;6.55;;;2.20;;
21675;SDS011;10999;51.332;9.458;2023-04-15T11:34:01;5.82;;;1.92;;
21675;SDS011;10999;51.332;9.458;2023-04-15T11:36:28;4.95;;;2.38;;
21675;SDS011;10999;51.332;9.458;2023-04-15T11:38:57;5.28;;;1.90;;
21675;SDS011;10999;51.332;9.458;2023-04-15T11:41:25;5.90;;;2.00;;
21675;SDS011;10999;51.332;9.458;2023-04-15T11:43:52;4.85;;;1.65;;
21675;SDS011;10999;51.332;9.458;2023-04-15T11:46:19;5.65;;;1.52;;
21675;SDS011;10999;51.332;9.458;2023-04-15T11:48:47;4.95;;;1.80;;
21675;SDS011;10999;51.332;9.458;2023-04-15T11:51:13;5.88;;;1.80;;
21675;SDS011;10999;51.332;9.458;2023-04-15T11:53:42;6.68;;;2.17;;
21675;SDS011;10999;51.332;9.458;2023-04-15T11:56:19;5.90;;;1.80;;
21675;SDS011;10999;51.332;9.458;2023-04-15T11:58:55;4.82;;;1.88;;
21675;SDS011;10999;51.332;9.458;2023-04-15T12:01:31;5.63;;;1.90;;
21675;SDS011;10999;51.332;9.458;2023-04-15T12:04:15;5.43;;;2.05;;
21675;SDS011;10999;51.332;9.458;2023-04-15T12:06:49;4.93;;;1.90;;
21675;SDS011;10999;51.332;9.458;2023-04-15T12:09:16;5.55;;;2.10;;
21675;SDS011;10999;51.332;9.458;2023-04-15T12:11:44;5.93;;;1.90;;
21675;SDS011;10999;51.332;9.458;2023-04-15T12:14:25;5.13;;;1.77;;
21675;SDS011;10999;51.332;9.458;2023-04-15T12:16:57;5.70;;;2.08;;
21675;SDS011;10999;51.332;9.458;2023-04-15T12:19:27;6.05;;;2.20;;
21675;SDS011;10999;51.332;9.458;2023-04-15T12:21:59;5.80;;;2.30;;
21675;SDS011;10999;51.332;9.458;2023-04-15T12:24:32;4.75;;;2.00;;
21675;SDS011;10999;51.332;9.458;2023-04-15T12:27:03;6.63;;;2.38;;
21675;SDS011;10999;51.332;9.458;2023-04-15T12:29:31;7.28;;;2.20;;
21675;SDS011;10999;51.332;9.458;2023-04-15T12:32:09;7.47;;;2.10;;
21675;SDS011;10999;51.332;9.458;2023-04-15T12:34:41;8.70;;;3.10;;
21675;SDS011;10999;51.332;9.458;2023-04-15T12:37:10;7.50;;;2.75;;
21675;SDS011;10999;51.332;9.458;2023-04-15T12:39:41;6.57;;;2.40;;
21675;SDS011;10999;51.332;9.458;2023-04-15T12:42:09;8.90;;;3.17;;
21675;SDS011;10999;51.332;9.458;2023-04-15T12:44:37;8.43;;;2.80;;
21675;SDS011;10999;51.332;9.458;2023-04-15T12:47:04;8.00;;;3.05;;
21675;SDS011;10999;51.332;9.458;2023-04-15T12:49:33;8.70;;;2.97;;
21675;SDS011;10999;51.332;9.458;2023-04-15T12:52:00;9.07;;;3.45;;
21675;SDS011;10999;51.332;9.458;2023-04-15T12:54:28;8.48;;;3.38;;
21675;SDS011;10999;51.332;9.458;2023-04-15T12:56:57;8.60;;;3.08;;
21675;SDS011;10999;51.332;9.458;2023-04-15T12:59:25;10.23;;;3.65;;
21675;SDS011;10999;51.332;9.458;2023-04-15T13:01:52;9.68;;;3.40;;
21675;SDS011;10999;51.332;9.458;2023-04-15T13:04:19;8.88;;;3.05;;
21675;SDS011;10999;51.332;9.458;2023-04-15T13:06:47;9.00;;;3.38;;
21675;SDS011;10999;51.332;9.458;2023-04-15T13:09:14;8.43;;;3.88;;
21675;SDS011;10999;51.332;9.458;2023-04-15T13:11:41;9.77;;;3.95;;
21675;SDS011;10999;51.332;9.458;2023-04-15T13:14:08;7.32;;;3.00;;
21675;SDS011;10999;51.332;9.458;2023-04-15T13:16:36;8.55;;;2.65;;
21675;SDS011;10999;51.332;9.458;2023-04-15T13:19:03;8.68;;;2.85;;
21675;SDS011;10999;51.332;9.458;2023-04-15T13:21:30;7.65;;;3.13;;
21675;SDS011;10999;51.332;9.458;2023-04-15T13:24:00;7.68;;;2.95;;
21675;SDS011;10999;51.332;9.458;2023-04-15T13:26:28;8.30;;;3.03;;
21675;SDS011;10999;51.332;9.458;2023-04-15T13:28:57;7.80;;;2.95;;
21675;SDS011;10999;51.332;9.458;2023-04-15T13:31:24;9.02;;;3.17;;
21675;SDS011;10999;51.332;9.458;2023-04-15T13:33:51;7.63;;;2.92;;
21675;SDS011;10999;51.332;9.458;2023-04-15T13:36:18;7.97;;;3.08;;
21675;SDS011;10999;51.332;9.458;2023-04-15T13:38:44;9.98;;;3.38;;
21675;SDS011;10999;51.332;9.458;2023-04-15T13:41:14;8.65;;;3.38;;
21675;SDS011;10999;51.332;9.458;2023-04-15T13:43:41;8.45;;;3.10;;
21675;SDS011;10999;51.332;9.458;2023-04-15T13:46:07;8.57;;;3.30;;
21675;SDS011;10999;51.332;9.458;2023-04-15T13:48:34;11.32;;;3.50;;
21675;SDS011;10999;51.332;9.458;2023-04-15T13:51:01;8.35;;;3.35;;
21675;SDS011;10999;51.332;9.458;2023-04-15T13:53:28;10.25;;;4.25;;
21675;SDS011;10999;51.332;9.458;2023-04-15T13:56:07;9.45;;;3.55;;
21675;SDS011;10999;51.332;9.458;2023-04-15T13:58:35;9.63;;;3.65;;
21675;SDS011;10999;51.332;9.458;2023-04-15T14:01:03;10.98;;;4.30;;
21675;SDS011;10999;51.332;9.458;2023-04-15T14:03:33;10.43;;;3.75;;
21675;SDS011;10999;51.332;9.458;2023-04-15T14:13:30;10.73;;;4.40;;
21675;SDS011;10999;51.332;9.458;2023-04-15T14:15:56;10.93;;;5.38;;
21675;SDS011;10999;51.332;9.458;2023-04-15T14:18:23;13.73;;;5.32;;
21675;SDS011;10999;51.332;9.458;2023-04-15T14:20:50;12.45;;;5.47;;
21675;SDS011;10999;51.332;9.458;2023-04-15T14:23:17;13.90;;;5.20;;
21675;SDS011;10999;51.332;9.458;2023-04-15T14:25:43;14.27;;;5.32;;
21675;SDS011;10999;51.332;9.458;2023-04-15T14:28:13;11.95;;;5.03;;
21675;SDS011;10999;51.332;9.458;2023-04-15T14:30:40;11.30;;;5.45;;
21675;SDS011;10999;51.332;9.458;2023-04-15T14:33:07;13.68;;;5.60;;
21675;SDS011;10999;51.332;9.458;2023-04-15T14:35:34;14.65;;;6.20;;
21675;SDS011;10999;51.332;9.458;2023-04-15T14:38:01;14.00;;;5.90;;
21675;SDS011;10999;51.332;9.458;2023-04-15T14:40:27;14.60;;;5.97;;
21675;SDS011;10999;51.332;9.458;2023-04-15T14:42:54;13.02;;;6.40;;
21675;SDS011;10999;51.332;9.458;2023-04-15T14:45:21;14.18;;;5.97;;
21675;SDS011;10999;51.332;9.458;2023-04-15T14:47:47;15.13;;;6.55;;
21675;SDS011;10999;51.332;9.458;2023-04-15T14:50:14;13.43;;;5.88;;
21675;SDS011;10999;51.332;9.458;2023-04-15T14:52:42;15.85;;;6.32;;
21675;SDS011;10999;51.332;9.458;2023-04-15T14:55:09;14.32;;;6.28;;
21675;SDS011;10999;51.332;9.458;2023-04-15T14:57:39;14.13;;;6.22;;
21675;SDS011;10999;51.332;9.458;2023-04-15T15:00:07;13.30;;;5.82;;
21675;SDS011;10999;51.332;9.458;2023-04-15T15:02:36;13.63;;;5.97;;
21675;SDS011;10999;51.332;9.458;2023-04-15T15:05:05;14.90;;;6.38;;
21675;SDS011;10999;51.332;9.458;2023-04-15T15:07:34;13.10;;;6.10;;
21675;SDS011;10999;51.332;9.458;2023-04-15T15:10:02;14.77;;;6.53;;
21675;SDS011;10999;51.332;9.458;2023-04-15T15:12:29;15.63;;;6.30;;